createdAt,value
2018-10-18T00:01:31.787Z,13.00
2018-10-18T00:04:01.132Z,13.00
2018-10-18T00:06:30.815Z,13.00
2018-10-18T00:09:00.466Z,12.90
2018-10-18T00:11:29.768Z,13.00
2018-10-18T00:13:59.178Z,12.90
2018-10-18T00:16:29.499Z,12.90
2018-10-18T00:18:59.277Z,12.90
2018-10-18T00:21:28.652Z,12.90
2018-10-18T00:23:59.464Z,12.80
2018-10-18T00:26:30.812Z,12.80
2018-10-18T00:29:01.905Z,12.80
2018-10-18T00:31:31.762Z,12.70
2018-10-18T00:34:01.271Z,12.70
2018-10-18T00:36:31.238Z,12.70
2018-10-18T00:39:01.342Z,12.70
2018-10-18T00:41:30.718Z,12.70
2018-10-18T00:44:00.347Z,12.60
2018-10-18T00:46:30.791Z,12.60
2018-10-18T00:49:00.871Z,12.60
2018-10-18T00:51:31.474Z,12.70
2018-10-18T00:54:00.993Z,12.60
2018-10-18T00:56:31.612Z,12.60
2018-10-18T00:59:02.296Z,12.50
2018-10-18T01:01:32.282Z,12.50
2018-10-18T01:04:02.147Z,12.50
2018-10-18T01:06:31.439Z,12.50
2018-10-18T01:09:00.523Z,12.50
2018-10-18T01:11:29.623Z,12.60
2018-10-18T01:13:58.671Z,12.60
2018-10-18T01:16:28.759Z,12.50
2018-10-18T01:18:58.096Z,12.60
2018-10-18T01:21:27.624Z,12.50
2018-10-18T01:23:57.089Z,12.60
2018-10-18T01:26:26.699Z,12.50
2018-10-18T01:28:56.077Z,12.50
2018-10-18T01:31:25.835Z,12.40
2018-10-18T01:33:54.951Z,12.40
2018-10-18T01:36:24.707Z,12.40
2018-10-18T01:38:53.932Z,12.40
2018-10-18T01:41:23.295Z,12.40
2018-10-18T01:43:53.627Z,12.40
2018-10-18T01:46:23.325Z,12.40
2018-10-18T01:48:52.314Z,12.40
2018-10-18T01:51:21.680Z,12.40
2018-10-18T01:53:50.924Z,12.40
2018-10-18T01:56:20.295Z,12.40
2018-10-18T01:58:50.496Z,12.40
2018-10-18T02:01:20.047Z,12.40
2018-10-18T02:03:50.369Z,12.50
2018-10-18T02:06:20.179Z,12.40
2018-10-18T02:08:49.962Z,12.40
2018-10-18T02:11:19.190Z,12.40
2018-10-18T02:13:48.492Z,12.40
2018-10-18T02:16:18.917Z,12.40
2018-10-18T02:18:48.849Z,12.40
2018-10-18T02:21:18.665Z,12.40
2018-10-18T02:23:48.317Z,12.30
2018-10-18T02:26:17.995Z,12.30
2018-10-18T02:28:47.748Z,12.20
2018-10-18T02:31:17.339Z,12.30
2018-10-18T02:33:47.211Z,12.20
2018-10-18T02:36:17.415Z,12.20
2018-10-18T02:38:47.397Z,12.10
2018-10-18T02:41:17.154Z,12.10
2018-10-18T02:43:46.702Z,12.10
2018-10-18T02:46:16.451Z,12.10
2018-10-18T02:48:45.864Z,12.10
2018-10-18T02:51:15.246Z,12.00
2018-10-18T02:53:44.656Z,11.90
2018-10-18T02:56:14.069Z,11.90
2018-10-18T02:58:43.186Z,11.90
2018-10-18T03:01:12.317Z,11.90
2018-10-18T03:03:41.297Z,11.90
2018-10-18T03:06:10.865Z,11.90
2018-10-18T03:08:40.094Z,11.90
2018-10-18T03:11:09.563Z,11.90
2018-10-18T03:13:39.114Z,11.90
2018-10-18T03:16:08.536Z,11.80
2018-10-18T03:18:37.871Z,11.80
2018-10-18T03:21:07.462Z,11.80
2018-10-18T03:23:37.102Z,11.80
2018-10-18T03:26:06.718Z,11.80
2018-10-18T03:28:35.928Z,11.80
2018-10-18T03:31:05.968Z,11.80
2018-10-18T03:33:36.269Z,11.80
2018-10-18T03:36:06.741Z,11.70
2018-10-18T03:38:36.648Z,11.80
2018-10-18T03:41:06.617Z,11.70
2018-10-18T03:43:36.119Z,11.80
2018-10-18T03:46:05.799Z,11.80
2018-10-18T03:48:35.715Z,11.80
2018-10-18T03:51:05.173Z,11.80
2018-10-18T03:53:35.182Z,11.90
2018-10-18T03:56:06.797Z,11.80
2018-10-18T03:58:36.337Z,11.80
2018-10-18T04:01:06.896Z,11.80
2018-10-18T04:03:36.723Z,11.70
2018-10-18T04:06:06.661Z,11.70
2018-10-18T04:08:36.231Z,11.70
2018-10-18T04:11:06.218Z,11.70
2018-10-18T04:13:36.418Z,11.70
2018-10-18T04:16:06.516Z,11.70
2018-10-18T04:18:36.260Z,11.70
2018-10-18T04:21:06.409Z,11.70
2018-10-18T04:23:36.206Z,11.70
2018-10-18T04:26:05.667Z,11.70
2018-10-18T04:28:37.055Z,11.60
2018-10-18T04:31:06.563Z,11.70
2018-10-18T04:33:36.427Z,11.60
2018-10-18T04:36:06.204Z,11.70
2018-10-18T04:38:36.018Z,11.70
2018-10-18T04:41:06.451Z,11.70
2018-10-18T04:43:36.412Z,11.60
2018-10-18T04:46:06.699Z,11.70
2018-10-18T04:48:37.009Z,11.70
2018-10-18T04:51:07.029Z,11.70
2018-10-18T04:53:36.123Z,11.60
2018-10-18T04:56:05.618Z,11.70
2018-10-18T04:58:34.687Z,11.60
2018-10-18T05:01:03.790Z,11.70
2018-10-18T05:03:33.096Z,11.60
2018-10-18T05:06:03.855Z,11.60
2018-10-18T05:08:33.255Z,11.60
2018-10-18T05:11:02.667Z,11.60
2018-10-18T05:13:32.228Z,11.60
2018-10-18T05:16:01.834Z,11.60
2018-10-18T05:18:31.175Z,11.50
2018-10-18T05:21:00.513Z,11.50
2018-10-18T05:23:29.574Z,11.50
2018-10-18T05:25:59.186Z,11.50
2018-10-18T05:28:29.310Z,11.40
2018-10-18T05:30:59.559Z,11.40
2018-10-18T05:33:29.651Z,11.40
2018-10-18T05:35:58.997Z,11.50
2018-10-18T05:38:28.339Z,11.50
2018-10-18T05:40:57.948Z,11.50
2018-10-18T05:43:27.813Z,11.50
2018-10-18T05:45:57.467Z,11.50
2018-10-18T05:48:27.706Z,11.50
2018-10-18T05:50:56.934Z,11.50
2018-10-18T05:53:26.071Z,11.50
2018-10-18T05:55:56.101Z,11.50
2018-10-18T05:58:25.557Z,11.50
2018-10-18T06:00:55.318Z,11.60
2018-10-18T06:03:25.523Z,11.60
2018-10-18T06:05:55.379Z,11.60
2018-10-18T06:08:25.216Z,11.70
2018-10-18T06:11:06.462Z,11.70
2018-10-18T06:13:36.025Z,11.80
2018-10-18T06:16:05.145Z,11.80
2018-10-18T06:18:34.393Z,11.90
2018-10-18T06:21:03.574Z,12.00
2018-10-18T06:23:33.998Z,12.00
2018-10-18T06:26:04.509Z,12.00
2018-10-18T06:28:35.403Z,12.00
2018-10-18T06:31:08.518Z,12.10
2018-10-18T06:33:39.528Z,12.20
2018-10-18T06:36:13.754Z,12.40
2018-10-18T06:38:43.569Z,12.60
2018-10-18T06:41:13.624Z,12.80
2018-10-18T06:43:43.246Z,12.90
2018-10-18T06:46:14.255Z,13.10
2018-10-18T06:48:44.885Z,13.20
2018-10-18T06:51:14.365Z,13.50
2018-10-18T06:53:43.814Z,14.00
2018-10-18T06:56:14.098Z,15.00
2018-10-18T06:58:45.387Z,16.00
2018-10-18T07:01:15.489Z,17.00
2018-10-18T07:03:44.692Z,17.90
2018-10-18T07:06:14.732Z,18.70
2018-10-18T07:08:44.207Z,19.40
2018-10-18T07:11:13.936Z,19.90
2018-10-18T07:13:43.525Z,20.40
2018-10-18T07:16:13.361Z,21.10
2018-10-18T07:18:43.107Z,21.60
2018-10-18T07:21:12.885Z,22.00
2018-10-18T07:23:42.861Z,22.60
2018-10-18T07:26:12.817Z,23.00
2018-10-18T07:28:42.555Z,23.60
2018-10-18T07:31:12.405Z,23.80
2018-10-18T07:33:41.914Z,24.80
2018-10-18T07:36:11.789Z,25.40
2018-10-18T07:38:41.432Z,25.90
2018-10-18T07:41:11.268Z,25.70
2018-10-18T07:43:41.076Z,24.90
2018-10-18T07:46:10.654Z,23.90
2018-10-18T07:48:40.379Z,23.00
2018-10-18T07:51:10.569Z,22.40
2018-10-18T07:53:40.360Z,22.10
2018-10-18T07:56:10.232Z,22.00
2018-10-18T07:58:40.117Z,21.60
2018-10-18T08:01:10.247Z,21.20
2018-10-18T08:03:40.046Z,20.80
2018-10-18T08:06:09.833Z,21.60
2018-10-18T08:08:39.510Z,22.60
2018-10-18T08:11:09.201Z,23.60
2018-10-18T08:13:39.262Z,24.50
2018-10-18T08:16:09.123Z,25.50
2018-10-18T08:18:38.549Z,26.30
2018-10-18T08:21:07.972Z,26.80
2018-10-18T08:23:37.882Z,27.30
2018-10-18T08:26:07.316Z,27.40
2018-10-18T08:28:36.334Z,27.10
2018-10-18T08:31:05.697Z,27.60
2018-10-18T08:33:35.223Z,26.80
2018-10-18T08:36:04.428Z,25.00
2018-10-18T08:38:33.486Z,24.40
2018-10-18T08:41:03.209Z,25.20
2018-10-18T08:43:32.234Z,25.30
2018-10-18T08:46:01.176Z,24.40
2018-10-18T08:48:30.502Z,23.60
2018-10-18T08:51:00.163Z,22.60
2018-10-18T08:53:29.629Z,21.90
2018-10-18T08:55:59.631Z,21.30
2018-10-18T08:58:29.566Z,21.20
2018-10-18T09:00:59.078Z,21.20
2018-10-18T09:03:28.670Z,21.20
2018-10-18T09:05:58.633Z,21.30
2018-10-18T09:08:28.319Z,21.20
2018-10-18T09:10:58.436Z,20.80
2018-10-18T09:13:28.444Z,20.50
2018-10-18T09:15:58.196Z,20.80
2018-10-18T09:18:27.973Z,21.10
2018-10-18T09:20:57.650Z,20.90
2018-10-18T09:23:27.388Z,20.90
2018-10-18T09:25:57.225Z,21.10
2018-10-18T09:28:27.514Z,21.40
2018-10-18T09:30:57.185Z,21.20
2018-10-18T09:33:27.038Z,20.90
2018-10-18T09:35:56.936Z,20.90
2018-10-18T09:38:26.900Z,21.30
2018-10-18T09:40:57.077Z,21.70
2018-10-18T09:43:30.467Z,22.00
2018-10-18T09:46:00.313Z,22.10
2018-10-18T09:48:29.805Z,21.70
2018-10-18T09:50:59.848Z,21.60
2018-10-18T09:53:29.698Z,21.60
2018-10-18T09:55:59.683Z,21.60
2018-10-18T09:58:29.755Z,21.10
2018-10-18T10:01:04.907Z,20.80
2018-10-18T10:03:35.324Z,20.70
2018-10-18T10:06:05.067Z,20.40
2018-10-18T10:08:35.068Z,20.30
2018-10-18T10:11:04.349Z,20.30
2018-10-18T10:13:34.202Z,20.30
2018-10-18T10:16:04.352Z,20.60
2018-10-18T10:18:33.933Z,21.10
2018-10-18T10:21:04.066Z,20.80
2018-10-18T10:23:33.939Z,20.60
2018-10-18T10:26:04.176Z,20.50
2018-10-18T10:28:33.797Z,20.40
2018-10-18T10:31:03.525Z,20.40
2018-10-18T10:33:33.810Z,20.30
2018-10-18T10:36:04.071Z,20.40
2018-10-18T10:38:34.673Z,20.50
2018-10-18T10:41:04.936Z,20.40
2018-10-18T10:43:34.653Z,20.50
2018-10-18T10:46:05.178Z,20.60
2018-10-18T10:48:36.511Z,20.30
2018-10-18T10:51:06.549Z,20.40
2018-10-18T10:53:38.207Z,20.30
2018-10-18T10:56:08.813Z,20.40
2018-10-18T10:58:39.223Z,20.50
2018-10-18T11:01:19.785Z,20.50
2018-10-18T11:03:50.184Z,20.10
2018-10-18T11:06:20.000Z,20.00
2018-10-18T11:08:49.869Z,19.70
2018-10-18T11:11:20.035Z,19.10
2018-10-18T11:13:51.726Z,18.90
2018-10-18T11:16:22.121Z,18.60
2018-10-18T11:18:51.629Z,18.60
2018-10-18T11:21:21.333Z,18.50
2018-10-18T11:23:52.964Z,18.60
2018-10-18T11:26:22.910Z,18.20
2018-10-18T11:28:54.278Z,17.80
2018-10-18T11:31:25.487Z,17.50
2018-10-18T11:33:58.093Z,17.40
2018-10-18T11:36:28.530Z,17.40
2018-10-18T11:38:58.040Z,17.40
2018-10-18T11:41:27.776Z,17.40
2018-10-18T11:43:57.557Z,17.30
2018-10-18T11:46:27.637Z,17.30
2018-10-18T11:48:58.219Z,17.30
2018-10-18T11:51:28.541Z,17.50
2018-10-18T11:53:59.643Z,17.30
2018-10-18T11:56:29.302Z,17.10
2018-10-18T11:58:59.398Z,17.20
2018-10-18T12:01:31.259Z,17.00
2018-10-18T12:04:01.159Z,16.90
2018-10-18T12:06:30.562Z,17.00
2018-10-18T12:08:59.875Z,17.10
2018-10-18T12:11:29.831Z,17.10
2018-10-18T12:13:59.616Z,17.00
2018-10-18T12:16:31.226Z,17.10
2018-10-18T12:19:06.757Z,17.20
2018-10-18T12:21:35.889Z,17.00
2018-10-18T12:24:06.832Z,17.00
2018-10-18T12:26:37.937Z,17.10
2018-10-18T12:29:07.803Z,16.90
2018-10-18T12:31:37.337Z,16.90
2018-10-18T12:34:06.893Z,16.90
2018-10-18T12:36:36.383Z,16.90
2018-10-18T12:39:08.026Z,16.80
2018-10-18T12:41:38.329Z,16.90
2018-10-18T12:44:07.383Z,16.90
2018-10-18T12:46:38.610Z,16.60
2018-10-18T12:49:08.173Z,16.60
2018-10-18T12:51:37.654Z,16.50
2018-10-18T12:54:08.839Z,16.50
2018-10-18T12:56:39.900Z,16.50
2018-10-18T12:59:12.021Z,16.50
2018-10-18T13:01:41.875Z,16.40
2018-10-18T13:04:12.693Z,16.30
2018-10-18T13:06:43.370Z,16.30
2018-10-18T13:09:12.793Z,16.30
2018-10-18T13:11:42.557Z,16.30
2018-10-18T13:14:12.334Z,16.30
2018-10-18T13:16:41.741Z,16.30
2018-10-18T13:19:11.123Z,16.20
2018-10-18T13:21:41.028Z,16.20
2018-10-18T13:24:10.407Z,16.00
2018-10-18T13:26:40.259Z,15.90
2018-10-18T13:29:10.937Z,15.80
2018-10-18T13:31:40.987Z,15.80
2018-10-18T13:34:11.404Z,15.70
2018-10-18T13:36:41.452Z,15.60
2018-10-18T13:39:15.271Z,15.50
2018-10-18T13:41:47.056Z,15.30
2018-10-18T13:44:17.365Z,15.30
2018-10-18T13:46:47.257Z,15.30
2018-10-18T13:49:16.369Z,15.20
2018-10-18T13:51:46.504Z,15.10
2018-10-18T13:54:17.934Z,15.10
2018-10-18T13:56:47.747Z,15.10
2018-10-18T13:59:28.412Z,15.10
2018-10-18T14:01:58.241Z,15.10
2018-10-18T14:04:27.481Z,15.20
2018-10-18T14:06:56.537Z,15.20
2018-10-18T14:09:25.463Z,15.30
2018-10-18T14:11:54.601Z,15.30
2018-10-18T14:14:24.022Z,15.40
2018-10-18T14:16:53.312Z,15.30
2018-10-18T14:19:23.880Z,15.40
2018-10-18T14:21:53.604Z,15.40
2018-10-18T14:24:22.803Z,15.30
2018-10-18T14:26:52.670Z,15.40
2018-10-18T14:29:22.686Z,15.30
2018-10-18T14:31:52.274Z,15.30
2018-10-18T14:34:21.993Z,15.20
2018-10-18T14:36:51.362Z,15.20
2018-10-18T14:39:21.128Z,15.20
2018-10-18T14:41:50.902Z,15.20
2018-10-18T14:44:21.154Z,15.20
2018-10-18T14:46:51.091Z,15.30
2018-10-18T14:49:21.291Z,15.30
2018-10-18T14:51:52.180Z,15.30
2018-10-18T14:54:22.447Z,15.20
2018-10-18T14:56:52.496Z,15.30
2018-10-18T14:59:23.436Z,15.20
2018-10-18T15:01:54.349Z,15.20
2018-10-18T15:04:24.435Z,15.20
2018-10-18T15:06:54.582Z,15.30
2018-10-18T15:09:25.421Z,15.30
2018-10-18T15:11:55.112Z,15.20
2018-10-18T15:14:25.481Z,15.20
2018-10-18T15:16:55.251Z,15.30
2018-10-18T15:19:28.068Z,15.30
2018-10-18T15:21:57.462Z,15.30
2018-10-18T15:24:27.115Z,15.30
2018-10-18T15:26:58.859Z,15.30
2018-10-18T15:29:28.916Z,15.20
2018-10-18T15:31:58.889Z,15.10
2018-10-18T15:34:28.673Z,15.20
2018-10-18T15:36:59.055Z,15.20
2018-10-18T15:39:28.944Z,15.60
2018-10-18T15:41:58.951Z,16.20
2018-10-18T15:44:30.224Z,16.50
2018-10-18T15:47:01.380Z,16.70
2018-10-18T15:49:31.345Z,17.20
2018-10-18T15:52:01.664Z,17.10
2018-10-18T15:54:32.132Z,17.30
2018-10-18T15:57:02.523Z,17.20
2018-10-18T15:59:32.314Z,17.30
2018-10-18T16:02:02.280Z,17.50
2018-10-18T16:04:32.419Z,17.60
2018-10-18T16:07:03.498Z,17.70
2018-10-18T16:09:33.108Z,17.60
2018-10-18T16:12:03.795Z,17.70
2018-10-18T16:14:35.634Z,17.80
2018-10-18T16:17:05.815Z,17.80
2018-10-18T16:19:37.993Z,17.80
2018-10-18T16:22:10.457Z,17.90
2018-10-18T16:27:48.931Z,17.80
2018-10-18T16:30:18.632Z,17.90
2018-10-18T16:32:48.025Z,18.00
2018-10-18T16:35:17.365Z,17.80
2018-10-18T16:37:47.345Z,17.90
2018-10-18T16:40:17.649Z,17.90
2018-10-18T16:42:46.899Z,17.90
2018-10-18T16:45:16.317Z,17.90
2018-10-18T16:47:46.209Z,17.90
2018-10-18T16:50:16.138Z,17.80
2018-10-18T16:52:46.570Z,17.70
2018-10-18T16:55:16.163Z,17.70
2018-10-18T16:57:45.885Z,17.50
2018-10-18T17:00:39.174Z,17.60
2018-10-18T17:03:14.815Z,17.50
2018-10-18T17:05:45.524Z,17.60
2018-10-18T17:08:15.467Z,17.70
2018-10-18T17:10:47.397Z,17.50
2018-10-18T17:13:18.377Z,17.50
2018-10-18T17:15:48.497Z,17.60
2018-10-18T17:18:18.541Z,17.60
2018-10-18T17:20:48.887Z,17.30
2018-10-18T17:23:18.506Z,17.30
2018-10-18T17:25:48.147Z,17.20
2018-10-18T17:28:18.633Z,17.20
2018-10-18T17:30:49.307Z,17.00
2018-10-18T17:33:20.070Z,16.80
2018-10-18T17:35:51.584Z,16.80
2018-10-18T17:38:23.113Z,17.00
2018-10-18T17:40:52.767Z,16.90
2018-10-18T17:43:22.596Z,17.00
2018-10-18T17:45:52.237Z,16.90
2018-10-18T17:48:21.906Z,17.00
2018-10-18T17:50:51.825Z,16.90
2018-10-18T17:53:25.462Z,17.00
2018-10-18T17:55:55.137Z,17.00
2018-10-18T17:58:24.817Z,17.00
2018-10-18T18:00:55.098Z,17.00
2018-10-18T18:03:24.642Z,16.60
2018-10-18T18:05:55.118Z,15.90
2018-10-18T18:08:24.777Z,15.40
2018-10-18T18:10:54.442Z,15.00
2018-10-18T18:13:25.303Z,14.80
2018-10-18T18:15:55.262Z,14.70
2018-10-18T18:18:25.484Z,14.50
2018-10-18T18:20:55.891Z,14.50
2018-10-18T18:23:25.904Z,14.50
2018-10-18T18:25:56.083Z,14.50
2018-10-18T18:28:26.410Z,14.40
2018-10-18T18:30:56.519Z,14.40
2018-10-18T18:33:28.997Z,14.40
2018-10-18T18:35:59.166Z,14.40
2018-10-18T18:38:30.111Z,14.30
2018-10-18T18:41:00.629Z,14.30
2018-10-18T18:43:30.977Z,14.20
2018-10-18T18:46:00.995Z,14.20
2018-10-18T18:48:31.743Z,14.20
2018-10-18T18:51:02.274Z,14.20
2018-10-18T18:53:33.102Z,14.20
2018-10-18T18:56:04.832Z,14.20
2018-10-18T18:58:34.743Z,14.10
2018-10-18T19:01:05.385Z,14.10
2018-10-18T19:03:36.436Z,14.10
2018-10-18T19:06:08.482Z,14.10
2018-10-18T19:08:39.737Z,14.10
2018-10-18T19:11:12.404Z,14.00
2018-10-18T19:13:42.075Z,14.00
2018-10-18T19:16:12.666Z,14.10
2018-10-18T19:18:43.757Z,14.00
2018-10-18T19:21:13.441Z,14.00
2018-10-18T19:23:43.251Z,14.00
2018-10-18T19:26:12.827Z,14.00
2018-10-18T19:28:43.695Z,13.90
2018-10-18T19:31:13.815Z,13.90
2018-10-18T19:33:44.303Z,13.80
2018-10-18T19:36:14.971Z,13.80
2018-10-18T19:38:46.161Z,13.80
2018-10-18T19:41:16.401Z,13.80
2018-10-18T19:43:47.098Z,13.80
2018-10-18T19:46:17.482Z,13.80
2018-10-18T19:48:48.030Z,13.70
2018-10-18T19:51:18.152Z,13.70
2018-10-18T19:53:48.701Z,13.70
2018-10-18T19:56:19.392Z,13.70
2018-10-18T19:58:49.980Z,13.70
2018-10-18T20:01:21.466Z,13.60
2018-10-18T20:03:52.500Z,13.60
2018-10-18T20:06:22.534Z,13.60
2018-10-18T20:08:52.885Z,13.60
2018-10-18T20:11:23.121Z,13.60
2018-10-18T20:13:53.817Z,13.50
2018-10-18T20:16:23.642Z,13.50
2018-10-18T20:18:53.209Z,13.60
2018-10-18T20:21:23.169Z,13.50
2018-10-18T20:23:56.513Z,13.50
2018-10-18T20:26:27.045Z,13.40
2018-10-18T20:28:57.095Z,13.50
2018-10-18T20:31:26.781Z,14.20
2018-10-18T20:33:56.246Z,15.00
2018-10-18T20:36:25.967Z,15.40
2018-10-18T20:38:55.949Z,15.30
2018-10-18T20:41:26.862Z,14.90
2018-10-18T20:43:56.255Z,14.50
2018-10-18T20:46:26.727Z,14.30
2018-10-18T20:48:56.511Z,14.40
2018-10-18T20:51:26.624Z,14.30
2018-10-18T20:53:56.941Z,14.50
2018-10-18T20:56:27.882Z,14.50
2018-10-18T20:58:58.897Z,14.60
2018-10-18T21:01:29.280Z,14.50
2018-10-18T21:03:59.167Z,14.60
2018-10-18T21:06:29.322Z,14.30
2018-10-18T21:08:59.398Z,14.30
2018-10-18T21:11:29.503Z,14.30
2018-10-18T21:13:59.031Z,14.40
2018-10-18T21:16:31.108Z,14.60
2018-10-18T21:19:00.629Z,14.40
2018-10-18T21:21:31.266Z,14.30
2018-10-18T21:24:01.558Z,14.10
2018-10-18T21:26:30.737Z,14.10
2018-10-18T21:29:00.542Z,14.10
2018-10-18T21:31:30.060Z,13.90
2018-10-18T21:34:00.277Z,14.00
2018-10-18T21:36:29.554Z,14.30
2018-10-18T21:38:58.872Z,14.00
2018-10-18T21:41:28.922Z,13.80
2018-10-18T21:43:58.569Z,13.70
2018-10-18T21:46:31.003Z,13.60
2018-10-18T21:49:00.870Z,13.60
2018-10-18T21:51:31.245Z,13.40
2018-10-18T21:54:01.611Z,13.40
2018-10-18T21:56:32.117Z,13.40
2018-10-18T21:59:02.128Z,13.30
2018-10-18T22:01:32.405Z,13.30
2018-10-18T22:04:02.964Z,13.30
2018-10-18T22:06:32.890Z,13.30
2018-10-18T22:09:02.273Z,13.30
2018-10-18T22:11:32.090Z,13.50
2018-10-18T22:14:02.085Z,13.40
2018-10-18T22:16:31.428Z,13.30
2018-10-18T22:19:01.134Z,13.30
2018-10-18T22:21:31.253Z,13.30
2018-10-18T22:24:00.611Z,13.20
2018-10-18T22:26:29.746Z,13.10
2018-10-18T22:28:59.469Z,13.10
2018-10-18T22:31:29.078Z,13.00
2018-10-18T22:33:59.308Z,13.00
2018-10-18T22:36:29.057Z,13.00
2018-10-18T22:38:58.798Z,13.00
2018-10-18T22:41:28.606Z,12.90
2018-10-18T22:43:57.770Z,12.90
2018-10-18T22:46:27.010Z,12.90
2018-10-18T22:48:56.441Z,12.90
2018-10-18T22:51:25.846Z,12.90
2018-10-18T22:53:55.251Z,12.80
2018-10-18T22:56:24.477Z,12.80
2018-10-18T22:58:53.594Z,12.70
2018-10-18T23:01:23.122Z,12.70
2018-10-18T23:03:52.461Z,12.70
2018-10-18T23:06:21.879Z,12.70
2018-10-18T23:08:51.239Z,12.70
2018-10-18T23:11:22.195Z,12.60
2018-10-18T23:13:51.778Z,12.60
2018-10-18T23:16:21.059Z,12.50
2018-10-18T23:18:54.984Z,12.50
2018-10-18T23:21:24.057Z,12.40
2018-10-18T23:23:53.244Z,12.40
2018-10-18T23:26:22.459Z,12.40
2018-10-18T23:28:51.963Z,12.40
2018-10-18T23:31:21.286Z,12.30
2018-10-18T23:33:50.722Z,12.10
2018-10-18T23:36:20.674Z,12.10
2018-10-18T23:38:50.542Z,12.10
2018-10-18T23:41:20.030Z,12.10
2018-10-18T23:43:50.162Z,12.10
2018-10-18T23:46:20.502Z,12.10
2018-10-18T23:48:51.722Z,12.00
2018-10-18T23:51:21.829Z,12.10
2018-10-18T23:53:52.022Z,12.00
2018-10-18T23:56:23.415Z,12.00
2018-10-18T23:58:53.431Z,11.90
